sensor_id;sensor_type;location;lat;lon;timestamp;P1;durP1;ratioP1;P2;durP2;ratioP2
15814;SDS011;8008;50.024;8.172;2022-12-29T04:02:07;2.63;;;1.52;;
15814;SDS011;8008;50.024;8.172;2022-12-29T04:04:36;3.33;;;1.60;;
15814;SDS011;8008;50.024;8.172;2022-12-29T04:07:06;1.50;;;1.40;;
15814;SDS011;8008;50.024;8.172;2022-12-29T04:09:34;1.98;;;1.60;;
15814;SDS011;8008;50.024;8.172;2022-12-29T04:12:02;1.95;;;1.50;;
15814;SDS011;8008;50.024;8.172;2022-12-29T04:14:33;2.30;;;1.40;;
15814;SDS011;8008;50.024;8.172;2022-12-29T04:17:01;4.35;;;1.58;;
15814;SDS011;8008;50.024;8.172;2022-12-29T04:19:31;2.60;;;1.60;;
15814;SDS011;8008;50.024;8.172;2022-12-29T04:22:00;1.67;;;1.40;;
15814;SDS011;8008;50.024;8.172;2022-12-29T04:24:28;3.42;;;1.60;;
15814;SDS011;8008;50.024;8.172;2022-12-29T04:26:56;2.08;;;1.50;;
15814;SDS011;8008;50.024;8.172;2022-12-29T04:29:42;3.38;;;1.55;;
15814;SDS011;8008;50.024;8.172;2022-12-29T04:32:35;1.92;;;1.40;;
15814;SDS011;8008;50.024;8.172;2022-12-29T04:35:07;2.13;;;1.40;;
15814;SDS011;8008;50.024;8.172;2022-12-29T04:37:35;1.77;;;1.48;;
15814;SDS011;8008;50.024;8.172;2022-12-29T04:40:03;2.67;;;1.55;;
15814;SDS011;8008;50.024;8.172;2022-12-29T04:42:32;2.53;;;1.40;;
15814;SDS011;8008;50.024;8.172;2022-12-29T04:45:01;3.33;;;1.63;;
15814;SDS011;8008;50.024;8.172;2022-12-29T04:47:51;2.65;;;1.80;;
15814;SDS011;8008;50.024;8.172;2022-12-29T04:50:46;1.75;;;1.42;;
15814;SDS011;8008;50.024;8.172;2022-12-29T04:53:17;1.58;;;1.40;;
15814;SDS011;8008;50.024;8.172;2022-12-29T04:55:48;1.90;;;1.50;;
15814;SDS011;8008;50.024;8.172;2022-12-29T04:58:16;3.10;;;1.40;;
15814;SDS011;8008;50.024;8.172;2022-12-29T05:00:48;3.17;;;1.55;;
15814;SDS011;8008;50.024;8.172;2022-12-29T05:03:19;2.13;;;1.50;;
15814;SDS011;8008;50.024;8.172;2022-12-29T05:05:49;2.13;;;1.50;;
15814;SDS011;8008;50.024;8.172;2022-12-29T05:08:23;2.50;;;1.33;;
15814;SDS011;8008;50.024;8.172;2022-12-29T05:10:56;1.73;;;1.40;;
15814;SDS011;8008;50.024;8.172;2022-12-29T05:13:25;2.58;;;1.60;;
15814;SDS011;8008;50.024;8.172;2022-12-29T05:15:53;1.83;;;1.40;;
15814;SDS011;8008;50.024;8.172;2022-12-29T05:18:22;3.20;;;1.75;;
15814;SDS011;8008;50.024;8.172;2022-12-29T05:20:52;3.65;;;1.88;;
15814;SDS011;8008;50.024;8.172;2022-12-29T05:23:22;4.63;;;2.10;;
15814;SDS011;8008;50.024;8.172;2022-12-29T05:25:57;3.35;;;1.65;;
15814;SDS011;8008;50.024;8.172;2022-12-29T05:28:44;4.07;;;2.05;;
15814;SDS011;8008;50.024;8.172;2022-12-29T05:31:16;3.40;;;2.00;;
15814;SDS011;8008;50.024;8.172;2022-12-29T05:33:45;4.63;;;2.40;;
15814;SDS011;8008;50.024;8.172;2022-12-29T05:36:14;2.53;;;1.70;;
15814;SDS011;8008;50.024;8.172;2022-12-29T05:38:48;2.50;;;1.67;;
15814;SDS011;8008;50.024;8.172;2022-12-29T05:41:17;2.50;;;1.90;;
15814;SDS011;8008;50.024;8.172;2022-12-29T05:43:45;1.40;;;1.30;;
15814;SDS011;8008;50.024;8.172;2022-12-29T05:46:32;1.60;;;1.50;;
15814;SDS011;8008;50.024;8.172;2022-12-29T05:49:14;2.25;;;1.65;;
15814;SDS011;8008;50.024;8.172;2022-12-29T05:51:55;3.15;;;1.45;;
15814;SDS011;8008;50.024;8.172;2022-12-29T05:54:23;2.65;;;1.40;;
15814;SDS011;8008;50.024;8.172;2022-12-29T05:56:52;1.58;;;1.35;;
15814;SDS011;8008;50.024;8.172;2022-12-29T05:59:20;1.58;;;1.42;;
15814;SDS011;8008;50.024;8.172;2022-12-29T06:01:48;3.15;;;1.48;;
15814;SDS011;8008;50.024;8.172;2022-12-29T06:04:17;2.47;;;1.50;;
15814;SDS011;8008;50.024;8.172;2022-12-29T06:06:46;2.17;;;1.50;;
15814;SDS011;8008;50.024;8.172;2022-12-29T06:09:34;3.00;;;1.50;;
15814;SDS011;8008;50.024;8.172;2022-12-29T06:12:04;3.38;;;1.25;;
15814;SDS011;8008;50.024;8.172;2022-12-29T06:14:33;1.88;;;1.42;;
15814;SDS011;8008;50.024;8.172;2022-12-29T06:17:03;1.92;;;1.33;;
15814;SDS011;8008;50.024;8.172;2022-12-29T06:19:32;1.70;;;1.52;;
15814;SDS011;8008;50.024;8.172;2022-12-29T06:22:01;1.80;;;1.20;;
15814;SDS011;8008;50.024;8.172;2022-12-29T06:24:32;1.70;;;1.30;;
15814;SDS011;8008;50.024;8.172;2022-12-29T06:27:02;2.10;;;1.38;;
15814;SDS011;8008;50.024;8.172;2022-12-29T06:29:30;1.98;;;1.30;;
15814;SDS011;8008;50.024;8.172;2022-12-29T06:31:58;3.38;;;1.40;;
15814;SDS011;8008;50.024;8.172;2022-12-29T06:34:29;2.97;;;1.38;;
15814;SDS011;8008;50.024;8.172;2022-12-29T06:36:56;2.92;;;1.50;;
15814;SDS011;8008;50.024;8.172;2022-12-29T06:39:27;1.73;;;1.40;;
15814;SDS011;8008;50.024;8.172;2022-12-29T06:42:04;2.25;;;1.30;;
15814;SDS011;8008;50.024;8.172;2022-12-29T06:45:07;2.38;;;1.45;;
15814;SDS011;8008;50.024;8.172;2022-12-29T06:47:37;2.92;;;1.35;;
15814;SDS011;8008;50.024;8.172;2022-12-29T06:50:05;1.65;;;1.30;;
15814;SDS011;8008;50.024;8.172;2022-12-29T06:52:33;3.13;;;1.33;;
15814;SDS011;8008;50.024;8.172;2022-12-29T06:55:02;1.73;;;1.40;;
15814;SDS011;8008;50.024;8.172;2022-12-29T06:57:31;1.35;;;1.25;;
15814;SDS011;8008;50.024;8.172;2022-12-29T06:59:59;2.53;;;1.80;;
15814;SDS011;8008;50.024;8.172;2022-12-29T07:02:27;1.95;;;1.80;;
15814;SDS011;8008;50.024;8.172;2022-12-29T07:04:55;2.83;;;1.75;;
15814;SDS011;8008;50.024;8.172;2022-12-29T07:07:23;2.85;;;1.50;;
15814;SDS011;8008;50.024;8.172;2022-12-29T07:09:51;3.10;;;1.60;;
15814;SDS011;8008;50.024;8.172;2022-12-29T07:12:19;1.40;;;1.30;;
15814;SDS011;8008;50.024;8.172;2022-12-29T07:14:48;1.67;;;1.58;;
15814;SDS011;8008;50.024;8.172;2022-12-29T07:17:16;2.88;;;1.73;;
15814;SDS011;8008;50.024;8.172;2022-12-29T07:22:14;4.78;;;1.80;;
15814;SDS011;8008;50.024;8.172;2022-12-29T07:24:42;3.38;;;1.73;;
15814;SDS011;8008;50.024;8.172;2022-12-29T07:27:10;1.63;;;1.50;;
15814;SDS011;8008;50.024;8.172;2022-12-29T07:29:38;2.75;;;1.85;;
15814;SDS011;8008;50.024;8.172;2022-12-29T07:32:07;3.88;;;1.88;;
15814;SDS011;8008;50.024;8.172;2022-12-29T07:34:35;2.45;;;1.58;;
15814;SDS011;8008;50.024;8.172;2022-12-29T07:37:04;3.38;;;1.85;;
15814;SDS011;8008;50.024;8.172;2022-12-29T07:39:32;6.10;;;2.05;;
15814;SDS011;8008;50.024;8.172;2022-12-29T07:42:00;3.17;;;1.70;;
15814;SDS011;8008;50.024;8.172;2022-12-29T07:44:37;2.03;;;1.58;;
15814;SDS011;8008;50.024;8.172;2022-12-29T07:47:16;3.13;;;1.80;;
15814;SDS011;8008;50.024;8.172;2022-12-29T07:49:44;2.80;;;2.00;;
15814;SDS011;8008;50.024;8.172;2022-12-29T07:52:12;2.17;;;1.95;;
15814;SDS011;8008;50.024;8.172;2022-12-29T07:54:40;5.88;;;2.25;;
15814;SDS011;8008;50.024;8.172;2022-12-29T07:57:08;4.70;;;1.90;;
15814;SDS011;8008;50.024;8.172;2022-12-29T07:59:36;3.03;;;1.90;;
15814;SDS011;8008;50.024;8.172;2022-12-29T08:02:04;3.00;;;1.85;;
15814;SDS011;8008;50.024;8.172;2022-12-29T08:04:33;4.30;;;1.95;;
15814;SDS011;8008;50.024;8.172;2022-12-29T08:07:01;4.03;;;1.90;;
15814;SDS011;8008;50.024;8.172;2022-12-29T08:09:29;2.33;;;1.83;;
15814;SDS011;8008;50.024;8.172;2022-12-29T08:11:57;2.55;;;1.90;;
15814;SDS011;8008;50.024;8.172;2022-12-29T08:14:25;3.47;;;2.10;;
15814;SDS011;8008;50.024;8.172;2022-12-29T08:16:52;5.03;;;2.40;;
15814;SDS011;8008;50.024;8.172;2022-12-29T08:19:20;3.33;;;2.10;;
15814;SDS011;8008;50.024;8.172;2022-12-29T08:21:50;4.45;;;2.20;;
15814;SDS011;8008;50.024;8.172;2022-12-29T08:24:19;3.33;;;1.92;;
15814;SDS011;8008;50.024;8.172;2022-12-29T08:26:47;4.10;;;2.45;;
15814;SDS011;8008;50.024;8.172;2022-12-29T08:29:15;4.60;;;2.58;;
15814;SDS011;8008;50.024;8.172;2022-12-29T08:31:43;3.72;;;2.53;;
15814;SDS011;8008;50.024;8.172;2022-12-29T08:34:11;4.18;;;2.50;;
15814;SDS011;8008;50.024;8.172;2022-12-29T08:36:39;6.07;;;2.90;;
15814;SDS011;8008;50.024;8.172;2022-12-29T08:39:09;3.10;;;2.47;;
15814;SDS011;8008;50.024;8.172;2022-12-29T08:41:37;2.90;;;2.53;;
15814;SDS011;8008;50.024;8.172;2022-12-29T08:44:05;4.82;;;2.65;;
15814;SDS011;8008;50.024;8.172;2022-12-29T08:46:33;5.40;;;2.88;;
15814;SDS011;8008;50.024;8.172;2022-12-29T08:49:01;6.32;;;3.10;;
15814;SDS011;8008;50.024;8.172;2022-12-29T08:51:29;4.88;;;2.50;;
15814;SDS011;8008;50.024;8.172;2022-12-29T08:53:57;4.55;;;2.55;;
15814;SDS011;8008;50.024;8.172;2022-12-29T08:56:27;4.63;;;2.60;;
15814;SDS011;8008;50.024;8.172;2022-12-29T08:58:58;6.53;;;3.10;;
15814;SDS011;8008;50.024;8.172;2022-12-29T09:01:28;3.95;;;2.60;;
15814;SDS011;8008;50.024;8.172;2022-12-29T09:03:57;5.93;;;3.10;;
15814;SDS011;8008;50.024;8.172;2022-12-29T09:06:43;3.88;;;3.00;;
15814;SDS011;8008;50.024;8.172;2022-12-29T09:09:12;3.58;;;2.78;;
15814;SDS011;8008;50.024;8.172;2022-12-29T09:11:42;4.72;;;2.80;;
15814;SDS011;8008;50.024;8.172;2022-12-29T09:14:10;6.35;;;2.97;;
15814;SDS011;8008;50.024;8.172;2022-12-29T09:16:38;6.05;;;2.85;;
15814;SDS011;8008;50.024;8.172;2022-12-29T09:19:20;8.73;;;2.72;;
15814;SDS011;8008;50.024;8.172;2022-12-29T09:21:48;5.82;;;3.20;;
15814;SDS011;8008;50.024;8.172;2022-12-29T09:24:16;4.40;;;2.55;;
15814;SDS011;8008;50.024;8.172;2022-12-29T09:26:45;3.72;;;2.50;;
15814;SDS011;8008;50.024;8.172;2022-12-29T09:29:13;3.70;;;2.60;;
15814;SDS011;8008;50.024;8.172;2022-12-29T09:31:42;4.32;;;2.40;;
15814;SDS011;8008;50.024;8.172;2022-12-29T09:34:10;4.03;;;2.92;;
15814;SDS011;8008;50.024;8.172;2022-12-29T09:36:38;3.63;;;2.20;;
15814;SDS011;8008;50.024;8.172;2022-12-29T09:39:05;3.17;;;2.22;;
15814;SDS011;8008;50.024;8.172;2022-12-29T09:41:35;5.50;;;2.30;;
15814;SDS011;8008;50.024;8.172;2022-12-29T09:44:12;3.65;;;2.05;;
15814;SDS011;8008;50.024;8.172;2022-12-29T09:46:48;3.33;;;1.80;;
15814;SDS011;8008;50.024;8.172;2022-12-29T09:49:21;2.45;;;2.00;;
15814;SDS011;8008;50.024;8.172;2022-12-29T09:51:53;3.42;;;2.00;;
15814;SDS011;8008;50.024;8.172;2022-12-29T09:54:26;2.35;;;1.83;;
15814;SDS011;8008;50.024;8.172;2022-12-29T09:57:10;5.38;;;2.08;;
15814;SDS011;8008;50.024;8.172;2022-12-29T09:59:48;1.95;;;1.67;;
15814;SDS011;8008;50.024;8.172;2022-12-29T10:02:24;2.65;;;1.55;;
15814;SDS011;8008;50.024;8.172;2022-12-29T10:04:59;1.90;;;1.50;;
15814;SDS011;8008;50.024;8.172;2022-12-29T10:07:30;2.20;;;1.50;;
15814;SDS011;8008;50.024;8.172;2022-12-29T10:13:06;1.40;;;1.30;;
15814;SDS011;8008;50.024;8.172;2022-12-29T10:15:56;1.40;;;1.20;;
15814;SDS011;8008;50.024;8.172;2022-12-29T10:18:32;2.45;;;1.25;;
15814;SDS011;8008;50.024;8.172;2022-12-29T10:21:14;1.50;;;1.10;;
15814;SDS011;8008;50.024;8.172;2022-12-29T10:23:50;2.03;;;1.25;;
15814;SDS011;8008;50.024;8.172;2022-12-29T10:26:20;1.65;;;1.05;;
15814;SDS011;8008;50.024;8.172;2022-12-29T10:28:54;0.90;;;0.80;;
15814;SDS011;8008;50.024;8.172;2022-12-29T10:31:27;1.20;;;0.70;;
15814;SDS011;8008;50.024;8.172;2022-12-29T10:34:02;2.08;;;0.80;;
15814;SDS011;8008;50.024;8.172;2022-12-29T10:36:35;1.63;;;0.75;;
15814;SDS011;8008;50.024;8.172;2022-12-29T10:39:14;1.63;;;0.88;;
15814;SDS011;8008;50.024;8.172;2022-12-29T10:41:48;0.85;;;0.60;;
15814;SDS011;8008;50.024;8.172;2022-12-29T10:44:21;1.75;;;0.80;;
15814;SDS011;8008;50.024;8.172;2022-12-29T10:46:54;2.50;;;0.73;;
15814;SDS011;8008;50.024;8.172;2022-12-29T10:49:25;0.55;;;0.55;;
15814;SDS011;8008;50.024;8.172;2022-12-29T10:51:54;1.35;;;0.70;;
15814;SDS011;8008;50.024;8.172;2022-12-29T10:54:26;1.05;;;0.60;;
15814;SDS011;8008;50.024;8.172;2022-12-29T10:57:00;1.30;;;0.73;;
15814;SDS011;8008;50.024;8.172;2022-12-29T10:59:33;1.48;;;0.73;;
15814;SDS011;8008;50.024;8.172;2022-12-29T11:02:12;2.33;;;1.08;;
15814;SDS011;8008;50.024;8.172;2022-12-29T11:04:52;1.88;;;0.60;;
15814;SDS011;8008;50.024;8.172;2022-12-29T11:07:28;0.88;;;0.60;;
15814;SDS011;8008;50.024;8.172;2022-12-29T11:12:54;1.98;;;0.80;;
15814;SDS011;8008;50.024;8.172;2022-12-29T11:15:23;2.13;;;0.60;;
15814;SDS011;8008;50.024;8.172;2022-12-29T11:17:53;3.10;;;0.90;;
15814;SDS011;8008;50.024;8.172;2022-12-29T11:20:27;2.05;;;1.00;;
15814;SDS011;8008;50.024;8.172;2022-12-29T11:22:57;1.27;;;0.60;;
15814;SDS011;8008;50.024;8.172;2022-12-29T11:25:26;2.15;;;0.80;;
15814;SDS011;8008;50.024;8.172;2022-12-29T11:27:55;2.20;;;0.90;;
15814;SDS011;8008;50.024;8.172;2022-12-29T11:30:27;2.00;;;1.02;;
15814;SDS011;8008;50.024;8.172;2022-12-29T11:32:58;1.95;;;0.90;;
15814;SDS011;8008;50.024;8.172;2022-12-29T11:35:31;1.35;;;0.70;;
15814;SDS011;8008;50.024;8.172;2022-12-29T11:38:05;1.70;;;0.80;;
15814;SDS011;8008;50.024;8.172;2022-12-29T11:40:44;1.98;;;0.80;;
15814;SDS011;8008;50.024;8.172;2022-12-29T11:43:16;1.80;;;0.80;;
15814;SDS011;8008;50.024;8.172;2022-12-29T11:45:51;2.67;;;0.80;;
15814;SDS011;8008;50.024;8.172;2022-12-29T11:48:24;2.85;;;0.93;;
15814;SDS011;8008;50.024;8.172;2022-12-29T11:50:57;1.75;;;0.80;;
15814;SDS011;8008;50.024;8.172;2022-12-29T11:53:26;2.20;;;0.90;;
15814;SDS011;8008;50.024;8.172;2022-12-29T11:55:59;2.72;;;0.90;;
15814;SDS011;8008;50.024;8.172;2022-12-29T11:58:29;3.95;;;1.00;;
15814;SDS011;8008;50.024;8.172;2022-12-29T12:00:59;1.42;;;0.82;;
15814;SDS011;8008;50.024;8.172;2022-12-29T12:03:32;2.78;;;0.85;;
15814;SDS011;8008;50.024;8.172;2022-12-29T12:06:05;1.52;;;0.80;;
15814;SDS011;8008;50.024;8.172;2022-12-29T12:08:39;2.97;;;0.80;;
15814;SDS011;8008;50.024;8.172;2022-12-29T12:11:12;1.70;;;0.70;;
15814;SDS011;8008;50.024;8.172;2022-12-29T12:13:47;1.27;;;0.90;;
15814;SDS011;8008;50.024;8.172;2022-12-29T12:16:33;2.58;;;1.23;;
15814;SDS011;8008;50.024;8.172;2022-12-29T12:19:10;1.85;;;0.75;;
15814;SDS011;8008;50.024;8.172;2022-12-29T12:21:47;1.58;;;0.80;;
15814;SDS011;8008;50.024;8.172;2022-12-29T12:24:33;2.38;;;0.90;;
15814;SDS011;8008;50.024;8.172;2022-12-29T12:27:09;1.63;;;0.63;;
15814;SDS011;8008;50.024;8.172;2022-12-29T12:29:43;1.40;;;0.80;;
15814;SDS011;8008;50.024;8.172;2022-12-29T12:32:19;1.40;;;0.73;;
15814;SDS011;8008;50.024;8.172;2022-12-29T12:34:53;1.73;;;0.70;;
15814;SDS011;8008;50.024;8.172;2022-12-29T12:37:25;4.15;;;0.90;;
15814;SDS011;8008;50.024;8.172;2022-12-29T12:40:07;1.90;;;0.80;;
15814;SDS011;8008;50.024;8.172;2022-12-29T12:42:54;1.63;;;0.70;;
15814;SDS011;8008;50.024;8.172;2022-12-29T12:45:36;2.35;;;0.90;;
15814;SDS011;8008;50.024;8.172;2022-12-29T12:48:15;0.70;;;0.70;;
15814;SDS011;8008;50.024;8.172;2022-12-29T12:50:57;1.02;;;0.73;;
15814;SDS011;8008;50.024;8.172;2022-12-29T12:53:35;2.60;;;0.70;;
15814;SDS011;8008;50.024;8.172;2022-12-29T12:56:19;1.70;;;0.95;;
15814;SDS011;8008;50.024;8.172;2022-12-29T12:58:59;1.92;;;0.80;;
15814;SDS011;8008;50.024;8.172;2022-12-29T13:01:38;1.15;;;0.45;;
15814;SDS011;8008;50.024;8.172;2022-12-29T13:04:38;1.92;;;0.90;;
15814;SDS011;8008;50.024;8.172;2022-12-29T13:07:19;4.47;;;0.93;;
15814;SDS011;8008;50.024;8.172;2022-12-29T13:10:07;2.88;;;0.90;;
15814;SDS011;8008;50.024;8.172;2022-12-29T13:12:48;0.95;;;0.68;;
15814;SDS011;8008;50.024;8.172;2022-12-29T13:15:24;3.38;;;1.00;;
15814;SDS011;8008;50.024;8.172;2022-12-29T13:18:05;2.88;;;1.10;;
15814;SDS011;8008;50.024;8.172;2022-12-29T13:20:46;1.75;;;0.90;;
15814;SDS011;8008;50.024;8.172;2022-12-29T13:23:21;0.82;;;0.80;;
15814;SDS011;8008;50.024;8.172;2022-12-29T13:25:56;1.83;;;0.80;;
15814;SDS011;8008;50.024;8.172;2022-12-29T13:28:34;3.65;;;1.20;;
15814;SDS011;8008;50.024;8.172;2022-12-29T13:31:12;2.58;;;0.90;;
15814;SDS011;8008;50.024;8.172;2022-12-29T13:33:46;0.95;;;0.80;;
15814;SDS011;8008;50.024;8.172;2022-12-29T13:36:22;1.63;;;0.90;;
15814;SDS011;8008;50.024;8.172;2022-12-29T13:38:58;1.52;;;0.90;;
15814;SDS011;8008;50.024;8.172;2022-12-29T13:41:30;2.00;;;0.80;;
15814;SDS011;8008;50.024;8.172;2022-12-29T13:44:01;2.28;;;1.00;;
15814;SDS011;8008;50.024;8.172;2022-12-29T13:46:31;1.95;;;1.00;;
15814;SDS011;8008;50.024;8.172;2022-12-29T13:49:04;4.28;;;1.38;;
15814;SDS011;8008;50.024;8.172;2022-12-29T13:51:37;2.30;;;1.17;;
15814;SDS011;8008;50.024;8.172;2022-12-29T13:54:14;2.63;;;1.17;;
15814;SDS011;8008;50.024;8.172;2022-12-29T13:56:54;2.10;;;1.20;;
15814;SDS011;8008;50.024;8.172;2022-12-29T13:59:33;4.38;;;1.40;;
15814;SDS011;8008;50.024;8.172;2022-12-29T14:02:10;2.40;;;1.30;;
15814;SDS011;8008;50.024;8.172;2022-12-29T14:04:57;5.35;;;1.60;;
15814;SDS011;8008;50.024;8.172;2022-12-29T14:07:28;4.40;;;1.70;;
15814;SDS011;8008;50.024;8.172;2022-12-29T14:10:04;6.68;;;2.22;;
15814;SDS011;8008;50.024;8.172;2022-12-29T14:12:35;9.02;;;2.20;;
15814;SDS011;8008;50.024;8.172;2022-12-29T14:15:06;5.25;;;2.40;;
15814;SDS011;8008;50.024;8.172;2022-12-29T14:17:59;4.80;;;1.90;;
15814;SDS011;8008;50.024;8.172;2022-12-29T14:20:31;7.53;;;2.00;;
15814;SDS011;8008;50.024;8.172;2022-12-29T14:23:01;4.50;;;1.48;;
15814;SDS011;8008;50.024;8.172;2022-12-29T14:25:57;6.35;;;2.10;;
15814;SDS011;8008;50.024;8.172;2022-12-29T14:28:27;4.00;;;1.80;;
15814;SDS011;8008;50.024;8.172;2022-12-29T14:30:57;4.10;;;1.58;;
15814;SDS011;8008;50.024;8.172;2022-12-29T14:33:27;4.68;;;1.42;;
15814;SDS011;8008;50.024;8.172;2022-12-29T14:35:57;4.82;;;1.45;;
15814;SDS011;8008;50.024;8.172;2022-12-29T14:39:00;4.97;;;1.60;;
15814;SDS011;8008;50.024;8.172;2022-12-29T14:41:30;3.17;;;1.55;;
15814;SDS011;8008;50.024;8.172;2022-12-29T14:44:11;2.92;;;1.30;;
15814;SDS011;8008;50.024;8.172;2022-12-29T14:46:46;4.28;;;1.13;;
15814;SDS011;8008;50.024;8.172;2022-12-29T14:49:25;2.47;;;1.27;;
15814;SDS011;8008;50.024;8.172;2022-12-29T14:52:04;4.43;;;1.10;;
15814;SDS011;8008;50.024;8.172;2022-12-29T14:54:45;3.10;;;1.13;;
15814;SDS011;8008;50.024;8.172;2022-12-29T14:57:21;3.97;;;0.80;;
15814;SDS011;8008;50.024;8.172;2022-12-29T14:59:56;1.40;;;1.00;;
15814;SDS011;8008;50.024;8.172;2022-12-29T15:02:31;2.97;;;1.08;;
15814;SDS011;8008;50.024;8.172;2022-12-29T15:05:05;2.60;;;1.15;;
15814;SDS011;8008;50.024;8.172;2022-12-29T15:07:47;4.63;;;1.50;;
15814;SDS011;8008;50.024;8.172;2022-12-29T15:10:15;2.95;;;1.20;;
15814;SDS011;8008;50.024;8.172;2022-12-29T15:12:49;3.78;;;1.17;;
15814;SDS011;8008;50.024;8.172;2022-12-29T15:15:21;2.90;;;1.05;;
15814;SDS011;8008;50.024;8.172;2022-12-29T15:17:51;2.50;;;1.00;;
15814;SDS011;8008;50.024;8.172;2022-12-29T15:20:22;5.00;;;1.33;;
15814;SDS011;8008;50.024;8.172;2022-12-29T15:22:53;3.85;;;1.02;;
15814;SDS011;8008;50.024;8.172;2022-12-29T15:25:23;3.47;;;1.30;;
15814;SDS011;8008;50.024;8.172;2022-12-29T15:27:55;4.75;;;1.40;;
15814;SDS011;8008;50.024;8.172;2022-12-29T15:30:26;4.25;;;1.27;;
15814;SDS011;8008;50.024;8.172;2022-12-29T15:32:54;5.50;;;1.35;;
15814;SDS011;8008;50.024;8.172;2022-12-29T15:35:28;3.85;;;1.00;;
15814;SDS011;8008;50.024;8.172;2022-12-29T15:37:58;3.38;;;1.30;;
15814;SDS011;8008;50.024;8.172;2022-12-29T15:40:29;6.53;;;1.48;;
15814;SDS011;8008;50.024;8.172;2022-12-29T15:43:07;6.00;;;2.58;;
15814;SDS011;8008;50.024;8.172;2022-12-29T15:45:43;10.20;;;4.35;;
15814;SDS011;8008;50.024;8.172;2022-12-29T15:48:14;6.10;;;3.40;;
15814;SDS011;8008;50.024;8.172;2022-12-29T15:50:44;6.88;;;3.83;;
15814;SDS011;8008;50.024;8.172;2022-12-29T15:53:18;6.40;;;2.20;;
15814;SDS011;8008;50.024;8.172;2022-12-29T15:55:51;6.63;;;1.90;;
15814;SDS011;8008;50.024;8.172;2022-12-29T15:58:30;3.33;;;1.67;;
15814;SDS011;8008;50.024;8.172;2022-12-29T16:01:15;5.20;;;1.95;;
15814;SDS011;8008;50.024;8.172;2022-12-29T16:03:45;5.35;;;1.63;;
15814;SDS011;8008;50.024;8.172;2022-12-29T16:06:25;7.05;;;2.00;;
15814;SDS011;8008;50.024;8.172;2022-12-29T16:08:56;7.63;;;1.77;;
15814;SDS011;8008;50.024;8.172;2022-12-29T16:11:26;3.05;;;1.52;;
15814;SDS011;8008;50.024;8.172;2022-12-29T16:14:02;4.15;;;1.73;;
15814;SDS011;8008;50.024;8.172;2022-12-29T16:16:35;2.85;;;1.30;;
15814;SDS011;8008;50.024;8.172;2022-12-29T16:19:08;5.88;;;2.08;;
15814;SDS011;8008;50.024;8.172;2022-12-29T16:21:39;3.58;;;1.38;;
15814;SDS011;8008;50.024;8.172;2022-12-29T16:24:12;3.55;;;1.80;;
15814;SDS011;8008;50.024;8.172;2022-12-29T16:26:45;4.88;;;1.35;;
15814;SDS011;8008;50.024;8.172;2022-12-29T16:29:17;4.45;;;1.30;;
15814;SDS011;8008;50.024;8.172;2022-12-29T16:31:49;3.28;;;1.20;;
15814;SDS011;8008;50.024;8.172;2022-12-29T16:34:22;2.58;;;1.20;;
15814;SDS011;8008;50.024;8.172;2022-12-29T16:36:53;6.57;;;1.40;;
15814;SDS011;8008;50.024;8.172;2022-12-29T16:39:27;3.72;;;1.30;;
15814;SDS011;8008;50.024;8.172;2022-12-29T16:42:00;5.55;;;1.40;;
15814;SDS011;8008;50.024;8.172;2022-12-29T16:44:50;4.40;;;1.30;;
15814;SDS011;8008;50.024;8.172;2022-12-29T16:47:29;5.07;;;1.20;;
15814;SDS011;8008;50.024;8.172;2022-12-29T16:49:57;4.80;;;1.33;;
15814;SDS011;8008;50.024;8.172;2022-12-29T16:52:40;3.70;;;1.40;;
15814;SDS011;8008;50.024;8.172;2022-12-29T16:55:14;5.38;;;2.65;;
15814;SDS011;8008;50.024;8.172;2022-12-29T16:57:44;4.28;;;2.22;;
15814;SDS011;8008;50.024;8.172;2022-12-29T17:00:19;6.30;;;2.00;;
15814;SDS011;8008;50.024;8.172;2022-12-29T17:02:48;5.32;;;2.10;;
15814;SDS011;8008;50.024;8.172;2022-12-29T17:05:18;4.72;;;2.00;;
15814;SDS011;8008;50.024;8.172;2022-12-29T17:07:46;3.72;;;2.08;;
15814;SDS011;8008;50.024;8.172;2022-12-29T17:10:14;5.90;;;2.42;;
15814;SDS011;8008;50.024;8.172;2022-12-29T17:12:43;20.58;;;11.13;;
15814;SDS011;8008;50.024;8.172;2022-12-29T17:15:13;7.25;;;3.70;;
15814;SDS011;8008;50.024;8.172;2022-12-29T17:17:46;6.78;;;3.20;;
15814;SDS011;8008;50.024;8.172;2022-12-29T17:20:17;6.75;;;2.80;;
15814;SDS011;8008;50.024;8.172;2022-12-29T17:22:46;5.45;;;2.72;;
15814;SDS011;8008;50.024;8.172;2022-12-29T17:25:15;4.15;;;1.90;;
15814;SDS011;8008;50.024;8.172;2022-12-29T17:27:46;7.35;;;1.80;;
15814;SDS011;8008;50.024;8.172;2022-12-29T17:30:18;5.90;;;1.95;;
15814;SDS011;8008;50.024;8.172;2022-12-29T17:32:55;7.95;;;2.20;;
15814;SDS011;8008;50.024;8.172;2022-12-29T17:35:26;4.35;;;1.80;;
15814;SDS011;8008;50.024;8.172;2022-12-29T17:37:55;4.90;;;1.67;;
15814;SDS011;8008;50.024;8.172;2022-12-29T17:40:23;5.72;;;1.90;;
15814;SDS011;8008;50.024;8.172;2022-12-29T17:42:53;6.10;;;1.40;;
15814;SDS011;8008;50.024;8.172;2022-12-29T17:45:23;4.80;;;1.90;;
15814;SDS011;8008;50.024;8.172;2022-12-29T17:47:53;5.22;;;2.72;;
15814;SDS011;8008;50.024;8.172;2022-12-29T17:50:22;7.03;;;2.40;;
15814;SDS011;8008;50.024;8.172;2022-12-29T17:52:53;7.55;;;2.67;;
15814;SDS011;8008;50.024;8.172;2022-12-29T17:55:26;5.13;;;2.38;;
15814;SDS011;8008;50.024;8.172;2022-12-29T17:58:09;5.03;;;2.13;;
15814;SDS011;8008;50.024;8.172;2022-12-29T18:00:43;4.60;;;1.92;;
15814;SDS011;8008;50.024;8.172;2022-12-29T18:03:14;6.30;;;2.20;;
15814;SDS011;8008;50.024;8.172;2022-12-29T18:05:44;8.68;;;3.20;;
15814;SDS011;8008;50.024;8.172;2022-12-29T18:08:12;7.15;;;3.15;;
15814;SDS011;8008;50.024;8.172;2022-12-29T18:10:40;8.48;;;2.60;;
15814;SDS011;8008;50.024;8.172;2022-12-29T18:13:13;9.20;;;2.22;;
15814;SDS011;8008;50.024;8.172;2022-12-29T18:15:47;6.68;;;1.77;;
15814;SDS011;8008;50.024;8.172;2022-12-29T18:18:17;8.18;;;2.85;;
15814;SDS011;8008;50.024;8.172;2022-12-29T18:20:46;10.05;;;4.15;;
15814;SDS011;8008;50.024;8.172;2022-12-29T18:23:18;7.47;;;2.78;;
15814;SDS011;8008;50.024;8.172;2022-12-29T18:25:48;8.00;;;3.25;;
15814;SDS011;8008;50.024;8.172;2022-12-29T18:28:19;6.30;;;2.42;;
15814;SDS011;8008;50.024;8.172;2022-12-29T18:30:50;11.40;;;5.20;;
15814;SDS011;8008;50.024;8.172;2022-12-29T18:33:20;10.65;;;4.43;;
15814;SDS011;8008;50.024;8.172;2022-12-29T18:35:52;6.65;;;2.85;;
15814;SDS011;8008;50.024;8.172;2022-12-29T18:38:23;5.57;;;2.10;;
15814;SDS011;8008;50.024;8.172;2022-12-29T18:40:51;5.60;;;2.00;;
15814;SDS011;8008;50.024;8.172;2022-12-29T18:43:20;5.97;;;1.90;;
15814;SDS011;8008;50.024;8.172;2022-12-29T18:45:48;7.68;;;2.20;;
15814;SDS011;8008;50.024;8.172;2022-12-29T18:48:17;3.72;;;1.48;;
15814;SDS011;8008;50.024;8.172;2022-12-29T18:50:47;5.38;;;1.80;;
15814;SDS011;8008;50.024;8.172;2022-12-29T18:53:17;6.15;;;1.70;;
15814;SDS011;8008;50.024;8.172;2022-12-29T18:55:46;3.80;;;1.75;;
15814;SDS011;8008;50.024;8.172;2022-12-29T18:58:14;6.00;;;1.92;;
15814;SDS011;8008;50.024;8.172;2022-12-29T19:00:42;6.60;;;2.58;;
15814;SDS011;8008;50.024;8.172;2022-12-29T19:03:11;7.63;;;2.70;;
15814;SDS011;8008;50.024;8.172;2022-12-29T19:05:40;5.60;;;2.40;;
15814;SDS011;8008;50.024;8.172;2022-12-29T19:08:11;7.53;;;2.95;;
15814;SDS011;8008;50.024;8.172;2022-12-29T19:10:39;7.35;;;2.78;;
15814;SDS011;8008;50.024;8.172;2022-12-29T19:13:08;4.55;;;2.25;;
15814;SDS011;8008;50.024;8.172;2022-12-29T19:15:41;7.57;;;2.58;;
15814;SDS011;8008;50.024;8.172;2022-12-29T19:18:13;8.90;;;2.90;;
15814;SDS011;8008;50.024;8.172;2022-12-29T19:21:04;5.15;;;2.90;;
15814;SDS011;8008;50.024;8.172;2022-12-29T19:23:33;6.97;;;3.30;;
15814;SDS011;8008;50.024;8.172;2022-12-29T19:26:01;8.85;;;3.45;;
15814;SDS011;8008;50.024;8.172;2022-12-29T19:28:29;7.60;;;3.55;;
15814;SDS011;8008;50.024;8.172;2022-12-29T19:30:58;6.72;;;3.70;;
15814;SDS011;8008;50.024;8.172;2022-12-29T19:33:28;6.05;;;3.28;;
15814;SDS011;8008;50.024;8.172;2022-12-29T19:35:57;8.32;;;3.33;;
15814;SDS011;8008;50.024;8.172;2022-12-29T19:38:26;7.25;;;3.60;;
15814;SDS011;8008;50.024;8.172;2022-12-29T19:40:56;8.15;;;3.20;;
15814;SDS011;8008;50.024;8.172;2022-12-29T19:43:24;5.32;;;1.98;;